sensor_id;sensor_type;location;lat;lon;timestamp;P1;durP1;ratioP1;P2;durP2;ratioP2
30681;SDS011;17439;48.092;11.842;2022-11-23T00:00:41;3.37;;;0.87;;
30681;SDS011;17439;48.092;11.842;2022-11-23T00:03:13;0.75;;;0.70;;
30681;SDS011;17439;48.092;11.842;2022-11-23T00:05:40;1.15;;;0.77;;
30681;SDS011;17439;48.092;11.842;2022-11-23T00:08:08;3.17;;;1.05;;
30681;SDS011;17439;48.092;11.842;2022-11-23T00:10:35;2.88;;;1.10;;
30681;SDS011;17439;48.092;11.842;2022-11-23T00:13:02;4.00;;;0.90;;
30681;SDS011;17439;48.092;11.842;2022-11-23T00:15:29;0.85;;;0.80;;
30681;SDS011;17439;48.092;11.842;2022-11-23T00:17:56;1.27;;;0.77;;
30681;SDS011;17439;48.092;11.842;2022-11-23T00:20:24;1.90;;;1.00;;
30681;SDS011;17439;48.092;11.842;2022-11-23T00:22:51;4.38;;;0.75;;
30681;SDS011;17439;48.092;11.842;2022-11-23T00:25:18;1.65;;;0.88;;
30681;SDS011;17439;48.092;11.842;2022-11-23T00:27:45;3.25;;;1.40;;
30681;SDS011;17439;48.092;11.842;2022-11-23T00:30:13;2.72;;;1.20;;
30681;SDS011;17439;48.092;11.842;2022-11-23T00:32:40;1.77;;;0.90;;
30681;SDS011;17439;48.092;11.842;2022-11-23T00:35:07;1.75;;;0.85;;
30681;SDS011;17439;48.092;11.842;2022-11-23T00:37:34;3.60;;;1.77;;
30681;SDS011;17439;48.092;11.842;2022-11-23T00:40:02;1.98;;;1.02;;
30681;SDS011;17439;48.092;11.842;2022-11-23T00:42:29;2.47;;;0.97;;
30681;SDS011;17439;48.092;11.842;2022-11-23T00:45:03;3.35;;;1.42;;
30681;SDS011;17439;48.092;11.842;2022-11-23T00:47:31;3.10;;;0.85;;
30681;SDS011;17439;48.092;11.842;2022-11-23T00:49:58;1.60;;;1.00;;
30681;SDS011;17439;48.092;11.842;2022-11-23T00:52:25;4.30;;;0.93;;
30681;SDS011;17439;48.092;11.842;2022-11-23T00:54:52;1.85;;;0.95;;
30681;SDS011;17439;48.092;11.842;2022-11-23T00:57:19;0.90;;;0.77;;
30681;SDS011;17439;48.092;11.842;2022-11-23T00:59:47;2.08;;;1.23;;
30681;SDS011;17439;48.092;11.842;2022-11-23T01:02:15;1.48;;;0.80;;
30681;SDS011;17439;48.092;11.842;2022-11-23T01:04:42;1.48;;;0.80;;
30681;SDS011;17439;48.092;11.842;2022-11-23T01:07:09;1.60;;;0.98;;
30681;SDS011;17439;48.092;11.842;2022-11-23T01:09:36;4.45;;;1.15;;
30681;SDS011;17439;48.092;11.842;2022-11-23T01:12:05;3.47;;;1.08;;
30681;SDS011;17439;48.092;11.842;2022-11-23T01:14:32;3.72;;;1.17;;
30681;SDS011;17439;48.092;11.842;2022-11-23T01:17:02;7.45;;;1.42;;
30681;SDS011;17439;48.092;11.842;2022-11-23T01:19:33;2.15;;;1.10;;
30681;SDS011;17439;48.092;11.842;2022-11-23T01:22:00;2.13;;;0.95;;
30681;SDS011;17439;48.092;11.842;2022-11-23T01:24:27;3.63;;;1.23;;
30681;SDS011;17439;48.092;11.842;2022-11-23T01:26:55;1.27;;;0.90;;
30681;SDS011;17439;48.092;11.842;2022-11-23T01:29:22;2.60;;;1.03;;
30681;SDS011;17439;48.092;11.842;2022-11-23T01:31:50;2.03;;;1.02;;
30681;SDS011;17439;48.092;11.842;2022-11-23T01:34:17;2.22;;;1.33;;
30681;SDS011;17439;48.092;11.842;2022-11-23T01:36:44;1.93;;;1.27;;
30681;SDS011;17439;48.092;11.842;2022-11-23T01:39:11;1.83;;;1.10;;
30681;SDS011;17439;48.092;11.842;2022-11-23T01:41:40;2.23;;;1.20;;
30681;SDS011;17439;48.092;11.842;2022-11-23T01:46:56;3.63;;;1.23;;
30681;SDS011;17439;48.092;11.842;2022-11-23T01:49:25;1.98;;;0.90;;
30681;SDS011;17439;48.092;11.842;2022-11-23T01:51:56;3.33;;;1.10;;
30681;SDS011;17439;48.092;11.842;2022-11-23T01:54:33;1.50;;;0.82;;
30681;SDS011;17439;48.092;11.842;2022-11-23T01:57:08;1.88;;;0.90;;
30681;SDS011;17439;48.092;11.842;2022-11-23T01:59:43;0.90;;;0.80;;
30681;SDS011;17439;48.092;11.842;2022-11-23T02:02:11;3.83;;;0.90;;
30681;SDS011;17439;48.092;11.842;2022-11-23T02:04:41;1.90;;;1.02;;
30681;SDS011;17439;48.092;11.842;2022-11-23T02:07:13;2.05;;;0.90;;
30681;SDS011;17439;48.092;11.842;2022-11-23T02:09:43;5.50;;;1.25;;
30681;SDS011;17439;48.092;11.842;2022-11-23T02:12:12;3.03;;;0.95;;
30681;SDS011;17439;48.092;11.842;2022-11-23T02:14:42;3.63;;;0.98;;
30681;SDS011;17439;48.092;11.842;2022-11-23T02:19:47;1.35;;;0.90;;
30681;SDS011;17439;48.092;11.842;2022-11-23T02:22:36;2.45;;;0.82;;
30681;SDS011;17439;48.092;11.842;2022-11-23T02:25:29;1.40;;;0.88;;
30681;SDS011;17439;48.092;11.842;2022-11-23T02:28:11;1.77;;;0.82;;
30681;SDS011;17439;48.092;11.842;2022-11-23T02:30:43;1.52;;;0.85;;
30681;SDS011;17439;48.092;11.842;2022-11-23T02:33:12;1.08;;;0.73;;
30681;SDS011;17439;48.092;11.842;2022-11-23T02:35:52;7.65;;;0.70;;
30681;SDS011;17439;48.092;11.842;2022-11-23T02:38:23;4.47;;;1.05;;
30681;SDS011;17439;48.092;11.842;2022-11-23T02:40:55;1.20;;;0.90;;
30681;SDS011;17439;48.092;11.842;2022-11-23T02:43:23;1.40;;;0.85;;
30681;SDS011;17439;48.092;11.842;2022-11-23T02:45:58;2.55;;;0.80;;
30681;SDS011;17439;48.092;11.842;2022-11-23T02:48:29;3.45;;;0.90;;
30681;SDS011;17439;48.092;11.842;2022-11-23T02:50:56;3.53;;;1.00;;
30681;SDS011;17439;48.092;11.842;2022-11-23T02:53:23;1.20;;;0.60;;
30681;SDS011;17439;48.092;11.842;2022-11-23T02:55:53;1.65;;;0.85;;
30681;SDS011;17439;48.092;11.842;2022-11-23T02:58:20;3.88;;;0.80;;
30681;SDS011;17439;48.092;11.842;2022-11-23T03:00:47;2.35;;;0.70;;
30681;SDS011;17439;48.092;11.842;2022-11-23T03:03:18;2.70;;;0.82;;
30681;SDS011;17439;48.092;11.842;2022-11-23T03:05:45;2.17;;;1.30;;
30681;SDS011;17439;48.092;11.842;2022-11-23T03:08:12;0.65;;;0.57;;
30681;SDS011;17439;48.092;11.842;2022-11-23T03:10:40;1.27;;;0.73;;
30681;SDS011;17439;48.092;11.842;2022-11-23T03:13:07;1.33;;;0.85;;
30681;SDS011;17439;48.092;11.842;2022-11-23T03:15:37;4.90;;;0.80;;
30681;SDS011;17439;48.092;11.842;2022-11-23T03:18:05;2.58;;;0.65;;
30681;SDS011;17439;48.092;11.842;2022-11-23T03:20:32;0.73;;;0.68;;
30681;SDS011;17439;48.092;11.842;2022-11-23T03:23:00;1.97;;;0.70;;
30681;SDS011;17439;48.092;11.842;2022-11-23T03:25:27;1.52;;;0.60;;
30681;SDS011;17439;48.092;11.842;2022-11-23T03:27:55;1.95;;;0.73;;
30681;SDS011;17439;48.092;11.842;2022-11-23T03:30:22;1.13;;;0.60;;
30681;SDS011;17439;48.092;11.842;2022-11-23T03:32:50;1.80;;;0.80;;
30681;SDS011;17439;48.092;11.842;2022-11-23T03:35:18;0.98;;;0.70;;
30681;SDS011;17439;48.092;11.842;2022-11-23T03:38:06;4.10;;;0.77;;
30681;SDS011;17439;48.092;11.842;2022-11-23T03:40:33;2.37;;;1.20;;
30681;SDS011;17439;48.092;11.842;2022-11-23T03:43:10;5.05;;;0.80;;
30681;SDS011;17439;48.092;11.842;2022-11-23T03:45:38;1.20;;;0.60;;
30681;SDS011;17439;48.092;11.842;2022-11-23T03:48:05;2.00;;;0.82;;
30681;SDS011;17439;48.092;11.842;2022-11-23T03:50:33;3.50;;;1.75;;
30681;SDS011;17439;48.092;11.842;2022-11-23T03:53:00;1.90;;;0.70;;
30681;SDS011;17439;48.092;11.842;2022-11-23T03:55:28;1.88;;;1.13;;
30681;SDS011;17439;48.092;11.842;2022-11-23T03:57:55;0.57;;;0.50;;
30681;SDS011;17439;48.092;11.842;2022-11-23T04:00:22;2.60;;;0.68;;
30681;SDS011;17439;48.092;11.842;2022-11-23T04:02:49;1.03;;;0.80;;
30681;SDS011;17439;48.092;11.842;2022-11-23T04:05:35;1.85;;;0.90;;
30681;SDS011;17439;48.092;11.842;2022-11-23T04:08:26;2.58;;;0.73;;
30681;SDS011;17439;48.092;11.842;2022-11-23T04:10:55;1.15;;;0.52;;
30681;SDS011;17439;48.092;11.842;2022-11-23T04:13:33;1.05;;;0.57;;
30681;SDS011;17439;48.092;11.842;2022-11-23T04:16:00;1.58;;;0.60;;
30681;SDS011;17439;48.092;11.842;2022-11-23T04:18:27;1.77;;;0.98;;
30681;SDS011;17439;48.092;11.842;2022-11-23T04:20:54;1.45;;;0.57;;
30681;SDS011;17439;48.092;11.842;2022-11-23T04:23:21;1.65;;;0.60;;
30681;SDS011;17439;48.092;11.842;2022-11-23T04:25:49;2.38;;;0.40;;
30681;SDS011;17439;48.092;11.842;2022-11-23T04:28:18;0.73;;;0.57;;
30681;SDS011;17439;48.092;11.842;2022-11-23T04:30:47;1.67;;;0.63;;
30681;SDS011;17439;48.092;11.842;2022-11-23T04:33:14;1.38;;;0.85;;
30681;SDS011;17439;48.092;11.842;2022-11-23T04:35:43;1.52;;;0.70;;
30681;SDS011;17439;48.092;11.842;2022-11-23T04:38:13;1.35;;;0.50;;
30681;SDS011;17439;48.092;11.842;2022-11-23T04:40:41;1.55;;;0.40;;
30681;SDS011;17439;48.092;11.842;2022-11-23T04:45:38;1.75;;;0.77;;
30681;SDS011;17439;48.092;11.842;2022-11-23T04:48:12;2.38;;;0.52;;
30681;SDS011;17439;48.092;11.842;2022-11-23T04:50:41;1.08;;;0.68;;
30681;SDS011;17439;48.092;11.842;2022-11-23T04:53:16;1.05;;;0.50;;
30681;SDS011;17439;48.092;11.842;2022-11-23T04:55:45;2.75;;;0.60;;
30681;SDS011;17439;48.092;11.842;2022-11-23T04:58:14;1.75;;;0.70;;
30681;SDS011;17439;48.092;11.842;2022-11-23T05:00:41;4.07;;;0.60;;
30681;SDS011;17439;48.092;11.842;2022-11-23T05:03:10;1.83;;;0.60;;
30681;SDS011;17439;48.092;11.842;2022-11-23T05:05:39;1.95;;;0.73;;
30681;SDS011;17439;48.092;11.842;2022-11-23T05:08:07;1.65;;;0.70;;
30681;SDS011;17439;48.092;11.842;2022-11-23T05:10:50;0.85;;;0.40;;
30681;SDS011;17439;48.092;11.842;2022-11-23T05:13:18;2.53;;;0.70;;
30681;SDS011;17439;48.092;11.842;2022-11-23T05:15:47;1.85;;;0.60;;
30681;SDS011;17439;48.092;11.842;2022-11-23T05:18:19;2.03;;;0.77;;
30681;SDS011;17439;48.092;11.842;2022-11-23T05:20:48;1.17;;;0.63;;
30681;SDS011;17439;48.092;11.842;2022-11-23T05:23:15;1.10;;;0.53;;
30681;SDS011;17439;48.092;11.842;2022-11-23T05:25:44;3.47;;;0.82;;
30681;SDS011;17439;48.092;11.842;2022-11-23T05:28:15;1.02;;;0.65;;
30681;SDS011;17439;48.092;11.842;2022-11-23T05:31:04;1.10;;;0.60;;
30681;SDS011;17439;48.092;11.842;2022-11-23T05:33:31;5.68;;;1.13;;
30681;SDS011;17439;48.092;11.842;2022-11-23T05:36:00;2.38;;;0.77;;
30681;SDS011;17439;48.092;11.842;2022-11-23T05:38:35;3.53;;;0.98;;
30681;SDS011;17439;48.092;11.842;2022-11-23T05:41:07;0.45;;;0.40;;
30681;SDS011;17439;48.092;11.842;2022-11-23T05:43:37;28.08;;;1.00;;
30681;SDS011;17439;48.092;11.842;2022-11-23T05:46:07;2.33;;;0.60;;
30681;SDS011;17439;48.092;11.842;2022-11-23T05:48:35;2.78;;;0.70;;
30681;SDS011;17439;48.092;11.842;2022-11-23T05:51:07;0.57;;;0.38;;
30681;SDS011;17439;48.092;11.842;2022-11-23T05:53:39;0.80;;;0.80;;
30681;SDS011;17439;48.092;11.842;2022-11-23T05:56:13;2.33;;;0.60;;
30681;SDS011;17439;48.092;11.842;2022-11-23T05:58:54;4.13;;;0.82;;
30681;SDS011;17439;48.092;11.842;2022-11-23T06:03:51;2.35;;;0.70;;
30681;SDS011;17439;48.092;11.842;2022-11-23T06:06:19;1.40;;;0.63;;
30681;SDS011;17439;48.092;11.842;2022-11-23T06:08:46;1.80;;;0.38;;
30681;SDS011;17439;48.092;11.842;2022-11-23T06:11:16;1.67;;;0.90;;
30681;SDS011;17439;48.092;11.842;2022-11-23T06:13:45;3.17;;;0.73;;
30681;SDS011;17439;48.092;11.842;2022-11-23T06:16:14;1.27;;;0.52;;
30681;SDS011;17439;48.092;11.842;2022-11-23T06:18:53;2.10;;;0.55;;
30681;SDS011;17439;48.092;11.842;2022-11-23T06:21:20;3.97;;;0.95;;
30681;SDS011;17439;48.092;11.842;2022-11-23T06:23:48;1.57;;;0.80;;
30681;SDS011;17439;48.092;11.842;2022-11-23T06:26:16;4.82;;;0.90;;
30681;SDS011;17439;48.092;11.842;2022-11-23T06:28:43;1.25;;;0.70;;
30681;SDS011;17439;48.092;11.842;2022-11-23T06:31:10;5.10;;;0.80;;
30681;SDS011;17439;48.092;11.842;2022-11-23T06:33:37;1.38;;;0.80;;
30681;SDS011;17439;48.092;11.842;2022-11-23T06:36:04;2.42;;;0.80;;
30681;SDS011;17439;48.092;11.842;2022-11-23T06:38:40;4.30;;;1.77;;
30681;SDS011;17439;48.092;11.842;2022-11-23T06:41:14;3.33;;;2.22;;
30681;SDS011;17439;48.092;11.842;2022-11-23T06:43:41;4.22;;;2.30;;
30681;SDS011;17439;48.092;11.842;2022-11-23T06:46:10;3.00;;;1.67;;
30681;SDS011;17439;48.092;11.842;2022-11-23T06:48:41;2.90;;;1.20;;
30681;SDS011;17439;48.092;11.842;2022-11-23T06:51:13;7.35;;;1.70;;
30681;SDS011;17439;48.092;11.842;2022-11-23T06:53:42;3.42;;;1.52;;
30681;SDS011;17439;48.092;11.842;2022-11-23T06:56:11;3.75;;;1.80;;
30681;SDS011;17439;48.092;11.842;2022-11-23T06:58:39;2.45;;;1.85;;
30681;SDS011;17439;48.092;11.842;2022-11-23T07:01:10;3.80;;;2.20;;
30681;SDS011;17439;48.092;11.842;2022-11-23T07:03:44;6.15;;;2.75;;
30681;SDS011;17439;48.092;11.842;2022-11-23T07:06:20;6.88;;;2.55;;
30681;SDS011;17439;48.092;11.842;2022-11-23T07:08:52;3.47;;;2.13;;
30681;SDS011;17439;48.092;11.842;2022-11-23T07:11:37;7.25;;;2.40;;
30681;SDS011;17439;48.092;11.842;2022-11-23T07:14:04;4.63;;;2.47;;
30681;SDS011;17439;48.092;11.842;2022-11-23T07:16:33;3.53;;;1.80;;
30681;SDS011;17439;48.092;11.842;2022-11-23T07:19:01;2.55;;;1.67;;
30681;SDS011;17439;48.092;11.842;2022-11-23T07:21:28;4.30;;;1.80;;
30681;SDS011;17439;48.092;11.842;2022-11-23T07:23:55;2.60;;;1.85;;
30681;SDS011;17439;48.092;11.842;2022-11-23T07:26:22;2.10;;;1.45;;
30681;SDS011;17439;48.092;11.842;2022-11-23T07:28:49;3.97;;;2.03;;
30681;SDS011;17439;48.092;11.842;2022-11-23T07:31:17;3.58;;;1.90;;
30681;SDS011;17439;48.092;11.842;2022-11-23T07:33:44;4.53;;;2.92;;
30681;SDS011;17439;48.092;11.842;2022-11-23T07:36:12;3.40;;;1.70;;
30681;SDS011;17439;48.092;11.842;2022-11-23T07:38:42;3.33;;;2.08;;
30681;SDS011;17439;48.092;11.842;2022-11-23T07:41:12;2.38;;;2.03;;
30681;SDS011;17439;48.092;11.842;2022-11-23T07:44:06;2.63;;;2.13;;
30681;SDS011;17439;48.092;11.842;2022-11-23T07:46:33;1.90;;;1.50;;
30681;SDS011;17439;48.092;11.842;2022-11-23T07:49:00;3.80;;;2.00;;
30681;SDS011;17439;48.092;11.842;2022-11-23T07:51:27;4.63;;;1.70;;
30681;SDS011;17439;48.092;11.842;2022-11-23T07:53:55;3.65;;;1.55;;
30681;SDS011;17439;48.092;11.842;2022-11-23T07:56:22;3.25;;;1.77;;
30681;SDS011;17439;48.092;11.842;2022-11-23T07:58:50;1.63;;;1.20;;
30681;SDS011;17439;48.092;11.842;2022-11-23T08:01:17;2.25;;;1.50;;
30681;SDS011;17439;48.092;11.842;2022-11-23T08:03:45;2.65;;;1.52;;
30681;SDS011;17439;48.092;11.842;2022-11-23T08:06:14;2.90;;;1.50;;
30681;SDS011;17439;48.092;11.842;2022-11-23T08:11:09;1.73;;;1.30;;
30681;SDS011;17439;48.092;11.842;2022-11-23T08:13:37;3.35;;;1.83;;
30681;SDS011;17439;48.092;11.842;2022-11-23T08:16:04;2.50;;;1.50;;
30681;SDS011;17439;48.092;11.842;2022-11-23T08:18:31;5.28;;;2.80;;
30681;SDS011;17439;48.092;11.842;2022-11-23T08:20:59;2.43;;;0.80;;
30681;SDS011;17439;48.092;11.842;2022-11-23T08:23:26;1.35;;;1.00;;
30681;SDS011;17439;48.092;11.842;2022-11-23T08:25:53;4.63;;;1.30;;
30681;SDS011;17439;48.092;11.842;2022-11-23T08:28:21;3.65;;;1.38;;
30681;SDS011;17439;48.092;11.842;2022-11-23T08:30:48;4.80;;;2.03;;
30681;SDS011;17439;48.092;11.842;2022-11-23T08:33:15;4.18;;;1.80;;
30681;SDS011;17439;48.092;11.842;2022-11-23T08:35:43;5.50;;;2.28;;
30681;SDS011;17439;48.092;11.842;2022-11-23T08:38:10;2.97;;;1.42;;
30681;SDS011;17439;48.092;11.842;2022-11-23T08:40:37;3.22;;;1.15;;
30681;SDS011;17439;48.092;11.842;2022-11-23T08:43:05;1.10;;;0.80;;
30681;SDS011;17439;48.092;11.842;2022-11-23T08:45:32;3.33;;;1.05;;
30681;SDS011;17439;48.092;11.842;2022-11-23T08:48:00;2.30;;;0.77;;
30681;SDS011;17439;48.092;11.842;2022-11-23T08:50:28;2.25;;;0.70;;
30681;SDS011;17439;48.092;11.842;2022-11-23T08:52:56;1.42;;;0.98;;
30681;SDS011;17439;48.092;11.842;2022-11-23T08:55:24;1.38;;;0.70;;
30681;SDS011;17439;48.092;11.842;2022-11-23T08:57:56;0.90;;;0.60;;
30681;SDS011;17439;48.092;11.842;2022-11-23T09:00:24;3.40;;;1.23;;
30681;SDS011;17439;48.092;11.842;2022-11-23T09:02:51;1.27;;;1.10;;
30681;SDS011;17439;48.092;11.842;2022-11-23T09:05:19;3.30;;;1.10;;
30681;SDS011;17439;48.092;11.842;2022-11-23T09:07:46;1.10;;;0.80;;
30681;SDS011;17439;48.092;11.842;2022-11-23T09:10:14;3.45;;;1.23;;
30681;SDS011;17439;48.092;11.842;2022-11-23T09:12:45;2.20;;;0.95;;
30681;SDS011;17439;48.092;11.842;2022-11-23T09:15:13;1.95;;;0.93;;
30681;SDS011;17439;48.092;11.842;2022-11-23T09:17:40;1.35;;;0.80;;
30681;SDS011;17439;48.092;11.842;2022-11-23T09:20:08;1.17;;;0.70;;
30681;SDS011;17439;48.092;11.842;2022-11-23T09:22:36;1.80;;;0.82;;
30681;SDS011;17439;48.092;11.842;2022-11-23T09:25:03;4.72;;;1.58;;
30681;SDS011;17439;48.092;11.842;2022-11-23T09:27:31;1.73;;;0.70;;
30681;SDS011;17439;48.092;11.842;2022-11-23T09:29:59;2.33;;;1.05;;
30681;SDS011;17439;48.092;11.842;2022-11-23T09:32:26;1.67;;;0.68;;
30681;SDS011;17439;48.092;11.842;2022-11-23T09:34:53;3.55;;;0.70;;
30681;SDS011;17439;48.092;11.842;2022-11-23T09:37:20;5.20;;;1.05;;
30681;SDS011;17439;48.092;11.842;2022-11-23T09:39:47;3.05;;;1.33;;
30681;SDS011;17439;48.092;11.842;2022-11-23T09:47:48;2.38;;;1.23;;
30681;SDS011;17439;48.092;11.842;2022-11-23T09:53:20;1.02;;;0.77;;
30681;SDS011;17439;48.092;11.842;2022-11-23T09:55:51;6.75;;;2.33;;
30681;SDS011;17439;48.092;11.842;2022-11-23T09:58:22;6.25;;;1.30;;
30681;SDS011;17439;48.092;11.842;2022-11-23T10:01:01;4.32;;;1.25;;
30681;SDS011;17439;48.092;11.842;2022-11-23T10:03:31;3.33;;;1.58;;
30681;SDS011;17439;48.092;11.842;2022-11-23T10:08:40;2.67;;;1.02;;
30681;SDS011;17439;48.092;11.842;2022-11-23T10:14:30;4.18;;;0.85;;
30681;SDS011;17439;48.092;11.842;2022-11-23T10:26:01;2.13;;;0.80;;
30681;SDS011;17439;48.092;11.842;2022-11-23T10:28:29;1.35;;;0.80;;
30681;SDS011;17439;48.092;11.842;2022-11-23T10:31:14;1.65;;;0.80;;
30681;SDS011;17439;48.092;11.842;2022-11-23T10:36:39;7.32;;;1.80;;
30681;SDS011;17439;48.092;11.842;2022-11-23T10:39:14;4.57;;;1.40;;
30681;SDS011;17439;48.092;11.842;2022-11-23T10:41:47;6.05;;;1.30;;
30681;SDS011;17439;48.092;11.842;2022-11-23T10:46:56;2.22;;;0.70;;
30681;SDS011;17439;48.092;11.842;2022-11-23T10:49:25;1.83;;;0.80;;
30681;SDS011;17439;48.092;11.842;2022-11-23T10:51:57;2.47;;;1.17;;
30681;SDS011;17439;48.092;11.842;2022-11-23T10:57:29;3.05;;;0.90;;
30681;SDS011;17439;48.092;11.842;2022-11-23T11:00:00;4.25;;;1.17;;
30681;SDS011;17439;48.092;11.842;2022-11-23T11:02:28;5.03;;;1.17;;
30681;SDS011;17439;48.092;11.842;2022-11-23T11:08:31;3.97;;;0.63;;
30681;SDS011;17439;48.092;11.842;2022-11-23T11:11:07;1.95;;;1.02;;
30681;SDS011;17439;48.092;11.842;2022-11-23T11:13:41;6.97;;;0.90;;
30681;SDS011;17439;48.092;11.842;2022-11-23T11:19:19;5.97;;;0.98;;
30681;SDS011;17439;48.092;11.842;2022-11-23T11:21:52;5.63;;;0.95;;
30681;SDS011;17439;48.092;11.842;2022-11-23T11:24:22;3.80;;;0.88;;
30681;SDS011;17439;48.092;11.842;2022-11-23T11:27:05;3.28;;;0.73;;
30681;SDS011;17439;48.092;11.842;2022-11-23T11:29:46;6.22;;;2.22;;
30681;SDS011;17439;48.092;11.842;2022-11-23T11:35:13;2.20;;;0.57;;
30681;SDS011;17439;48.092;11.842;2022-11-23T11:37:51;2.88;;;0.68;;
30681;SDS011;17439;48.092;11.842;2022-11-23T11:40:26;3.97;;;0.68;;
30681;SDS011;17439;48.092;11.842;2022-11-23T11:46:16;2.38;;;0.80;;
30681;SDS011;17439;48.092;11.842;2022-11-23T11:49:05;1.05;;;0.57;;
30681;SDS011;17439;48.092;11.842;2022-11-23T11:51:52;3.53;;;1.27;;
30681;SDS011;17439;48.092;11.842;2022-11-23T11:59:44;5.05;;;0.85;;
30681;SDS011;17439;48.092;11.842;2022-11-23T12:02:30;2.05;;;0.98;;
30681;SDS011;17439;48.092;11.842;2022-11-23T12:05:21;2.58;;;1.10;;
30681;SDS011;17439;48.092;11.842;2022-11-23T12:10:23;1.33;;;0.90;;
30681;SDS011;17439;48.092;11.842;2022-11-23T12:12:53;3.67;;;1.05;;
30681;SDS011;17439;48.092;11.842;2022-11-23T12:15:23;2.38;;;1.30;;
30681;SDS011;17439;48.092;11.842;2022-11-23T12:18:36;3.10;;;0.85;;
30681;SDS011;17439;48.092;11.842;2022-11-23T12:24:14;3.08;;;1.50;;
30681;SDS011;17439;48.092;11.842;2022-11-23T12:26:52;1.83;;;1.23;;
30681;SDS011;17439;48.092;11.842;2022-11-23T12:29:31;4.07;;;1.42;;
30681;SDS011;17439;48.092;11.842;2022-11-23T12:32:11;2.30;;;0.93;;
30681;SDS011;17439;48.092;11.842;2022-11-23T12:40:21;3.25;;;0.80;;
30681;SDS011;17439;48.092;11.842;2022-11-23T12:42:54;1.83;;;1.00;;
30681;SDS011;17439;48.092;11.842;2022-11-23T12:54:34;1.77;;;0.90;;
30681;SDS011;17439;48.092;11.842;2022-11-23T12:57:17;2.15;;;0.90;;
30681;SDS011;17439;48.092;11.842;2022-11-23T12:59:54;4.35;;;1.60;;
30681;SDS011;17439;48.092;11.842;2022-11-23T13:02:35;1.17;;;0.70;;
30681;SDS011;17439;48.092;11.842;2022-11-23T13:08:37;2.65;;;1.05;;
30681;SDS011;17439;48.092;11.842;2022-11-23T13:11:35;2.72;;;1.40;;
30681;SDS011;17439;48.092;11.842;2022-11-23T13:17:19;2.17;;;1.10;;
30681;SDS011;17439;48.092;11.842;2022-11-23T13:22:54;3.13;;;1.35;;
30681;SDS011;17439;48.092;11.842;2022-11-23T13:25:25;4.60;;;1.48;;
30681;SDS011;17439;48.092;11.842;2022-11-23T13:27:55;12.55;;;2.53;;
30681;SDS011;17439;48.092;11.842;2022-11-23T13:30:34;2.03;;;0.95;;
30681;SDS011;17439;48.092;11.842;2022-11-23T13:33:24;2.80;;;0.65;;
30681;SDS011;17439;48.092;11.842;2022-11-23T13:35:57;7.60;;;1.67;;
30681;SDS011;17439;48.092;11.842;2022-11-23T13:38:37;3.17;;;0.85;;
30681;SDS011;17439;48.092;11.842;2022-11-23T13:57:42;1.63;;;1.00;;
30681;SDS011;17439;48.092;11.842;2022-11-23T14:06:16;6.22;;;1.45;;
30681;SDS011;17439;48.092;11.842;2022-11-23T14:09:04;2.08;;;0.80;;
30681;SDS011;17439;48.092;11.842;2022-11-23T14:11:59;9.07;;;2.05;;
30681;SDS011;17439;48.092;11.842;2022-11-23T14:14:44;3.35;;;1.00;;
30681;SDS011;17439;48.092;11.842;2022-11-23T14:17:28;4.72;;;0.90;;
30681;SDS011;17439;48.092;11.842;2022-11-23T14:31:34;2.75;;;1.10;;
30681;SDS011;17439;48.092;11.842;2022-11-23T14:42:36;2.05;;;1.10;;
30681;SDS011;17439;48.092;11.842;2022-11-23T14:45:12;1.80;;;0.90;;
30681;SDS011;17439;48.092;11.842;2022-11-23T14:47:40;5.28;;;1.40;;
30681;SDS011;17439;48.092;11.842;2022-11-23T14:50:21;6.40;;;2.40;;
30681;SDS011;17439;48.092;11.842;2022-11-23T14:52:55;4.38;;;1.05;;
30681;SDS011;17439;48.092;11.842;2022-11-23T14:55:26;3.42;;;0.88;;
30681;SDS011;17439;48.092;11.842;2022-11-23T14:57:56;3.40;;;1.15;;
30681;SDS011;17439;48.092;11.842;2022-11-23T15:00:36;3.42;;;1.30;;
30681;SDS011;17439;48.092;11.842;2022-11-23T15:03:14;4.33;;;1.10;;
30681;SDS011;17439;48.092;11.842;2022-11-23T15:06:13;2.75;;;0.95;;
30681;SDS011;17439;48.092;11.842;2022-11-23T15:08:44;4.00;;;1.35;;
30681;SDS011;17439;48.092;11.842;2022-11-23T15:11:20;2.15;;;0.90;;
30681;SDS011;17439;48.092;11.842;2022-11-23T15:13:52;4.32;;;1.13;;
30681;SDS011;17439;48.092;11.842;2022-11-23T15:16:20;5.88;;;3.22;;
30681;SDS011;17439;48.092;11.842;2022-11-23T15:18:47;4.38;;;2.25;;
30681;SDS011;17439;48.092;11.842;2022-11-23T15:21:21;7.30;;;3.00;;
30681;SDS011;17439;48.092;11.842;2022-11-23T15:23:54;8.35;;;3.97;;
30681;SDS011;17439;48.092;11.842;2022-11-23T15:26:25;5.68;;;3.30;;
30681;SDS011;17439;48.092;11.842;2022-11-23T15:29:27;5.97;;;3.00;;
30681;SDS011;17439;48.092;11.842;2022-11-23T15:31:55;6.10;;;2.40;;
30681;SDS011;17439;48.092;11.842;2022-11-23T15:34:42;8.35;;;4.03;;
30681;SDS011;17439;48.092;11.842;2022-11-23T15:37:09;9.80;;;6.43;;
30681;SDS011;17439;48.092;11.842;2022-11-23T15:39:36;15.73;;;7.00;;
30681;SDS011;17439;48.092;11.842;2022-11-23T15:42:04;13.55;;;6.18;;
30681;SDS011;17439;48.092;11.842;2022-11-23T15:44:32;9.48;;;4.90;;
30681;SDS011;17439;48.092;11.842;2022-11-23T15:47:04;9.02;;;4.80;;
30681;SDS011;17439;48.092;11.842;2022-11-23T15:49:36;9.55;;;4.30;;
30681;SDS011;17439;48.092;11.842;2022-11-23T15:52:04;8.35;;;4.28;;
30681;SDS011;17439;48.092;11.842;2022-11-23T15:54:35;10.00;;;4.07;;
30681;SDS011;17439;48.092;11.842;2022-11-23T15:57:08;8.15;;;3.40;;
30681;SDS011;17439;48.092;11.842;2022-11-23T15:59:57;7.18;;;2.65;;
30681;SDS011;17439;48.092;11.842;2022-11-23T16:02:27;4.95;;;2.55;;
30681;SDS011;17439;48.092;11.842;2022-11-23T16:05:12;7.53;;;3.40;;
30681;SDS011;17439;48.092;11.842;2022-11-23T16:07:52;9.02;;;3.53;;
30681;SDS011;17439;48.092;11.842;2022-11-23T16:10:32;10.07;;;3.75;;
30681;SDS011;17439;48.092;11.842;2022-11-23T16:13:00;8.10;;;3.88;;
30681;SDS011;17439;48.092;11.842;2022-11-23T16:15:37;10.77;;;3.97;;
30681;SDS011;17439;48.092;11.842;2022-11-23T16:20:41;8.45;;;3.55;;
30681;SDS011;17439;48.092;11.842;2022-11-23T16:23:15;5.28;;;2.80;;
30681;SDS011;17439;48.092;11.842;2022-11-23T16:25:53;4.82;;;2.58;;
30681;SDS011;17439;48.092;11.842;2022-11-23T16:28:27;6.10;;;2.67;;
30681;SDS011;17439;48.092;11.842;2022-11-23T16:30:58;4.28;;;2.40;;
30681;SDS011;17439;48.092;11.842;2022-11-23T16:33:27;9.80;;;4.03;;
30681;SDS011;17439;48.092;11.842;2022-11-23T16:35:54;5.57;;;2.47;;
30681;SDS011;17439;48.092;11.842;2022-11-23T16:38:22;6.25;;;3.10;;
30681;SDS011;17439;48.092;11.842;2022-11-23T16:40:49;4.78;;;2.00;;
30681;SDS011;17439;48.092;11.842;2022-11-23T16:43:17;9.90;;;2.90;;
30681;SDS011;17439;48.092;11.842;2022-11-23T16:45:45;4.00;;;1.95;;
30681;SDS011;17439;48.092;11.842;2022-11-23T16:50:51;6.93;;;3.17;;
30681;SDS011;17439;48.092;11.842;2022-11-23T16:53:19;6.85;;;3.20;;
30681;SDS011;17439;48.092;11.842;2022-11-23T16:55:50;7.72;;;3.65;;
30681;SDS011;17439;48.092;11.842;2022-11-23T16:58:21;8.13;;;3.33;;
30681;SDS011;17439;48.092;11.842;2022-11-23T17:00:49;7.45;;;2.97;;
30681;SDS011;17439;48.092;11.842;2022-11-23T17:03:19;7.45;;;3.60;;
30681;SDS011;17439;48.092;11.842;2022-11-23T17:05:47;6.78;;;3.55;;
30681;SDS011;17439;48.092;11.842;2022-11-23T17:08:14;6.03;;;3.97;;
30681;SDS011;17439;48.092;11.842;2022-11-23T17:10:49;7.82;;;2.92;;
30681;SDS011;17439;48.092;11.842;2022-11-23T17:13:26;6.65;;;3.50;;
30681;SDS011;17439;48.092;11.842;2022-11-23T17:15:55;5.22;;;3.40;;
30681;SDS011;17439;48.092;11.842;2022-11-23T17:18:22;9.13;;;3.70;;